Aeroporto :
LOGIN :

Iscrizione | Disclaimer

   EN    FR    IT 

 










Sommario :    VFR   VFR Marginale   IFR   IFR Intensivo   IFR Molto Intensivo
Visibilità : 
Base nubi : 
>= 8 km
>= 3000ft
5 / 8 km
1000 / 3000 ft
1500m / 5 km
500 / 1000 ft
800 / 1500m
200 / 500 ft
< 800m
< 200 ft
Simboli :   Temporali  Nebbia  Neve Forte  Precipitazioni Forti  Vento > 20 kt
SIGMETs :   Varie  Temporali  Ghiacco  Turbolenza  Onda orograficha  Ceneri Vulcaniche






- Altitudine del aeroporto : 306 ft
- Codice IATA : EMA


EGNX - Nottingham East Midlands

ULTIMO METAR :
  • 240820Z 35010KT 330V040 9999 FEW033 SCT047 07/M01 Q1018

METARs OBSOLETI :
  • 240750Z 35010KT 9999 FEW044 07/M00 Q1018
  • 240720Z 36010KT 340V040 CAVOK 06/01 Q1018
  • 240650Z 35011KT CAVOK 06/01 Q1018
  • 240620Z 34008KT 290V010 CAVOK 05/01 Q1018
  • 240550Z 33005KT 290V010 9999 FEW030 05/01 Q1018
  • 240520Z 34005KT 9999 SCT027 05/01 Q1019
  • 240450Z 35005KT 310V010 9999 SCT030 05/01 Q1019
  • 240420Z 35004KT 9999 SCT037 05/01 Q1019
  • 240350Z 35004KT 310V030 9999 SCT037 05/01 Q1019

TAF TAF EGNX
Valido dal 24 a 06 ore il 25 a 06 ore UTC


240458Z 2406/2506 34005KT 9999 SCT040
ATIS : +44 1332 852 852 (ext 3201)



MetMap, La meteo Aeronautica in un colpo d'occhio ! - Copyright ORBIFLY Dicembre 2007 - Disclaimer

ORBIFLY MET'MAP TEAM :

Programmazione e sviluppo : Alexandra Zaïnal
Concezione : Baudouin d'Aumeries
Supporto tecnico e logistico : Manuel Goepfert
Aiuto : Marc-Olivier Méhu
Aiuto per la traduzione : Arnaldo La Scala




FONTI E CREDITI :

   NOAA